Time;durP1;ratioP1;P1;durP2;ratioP2;P2;SDS_P1;SDS_P2;PMS_P1;PMS_P2;Temp;Humidity;BMP_temperature;BMP_pressure;BME280_temperature;BME280_humidity;BME280_pressure;Samples;Min_cycle;Max_cycle;Signal;HPM_P1;HPM_P2
2024/04/19 00:01:40;;;;;;;1999.90;999.90;;;6.00;58.10;;;;;;5425564;26;19999;-80
2024/04/19 00:04:06;;;;;;;1999.90;999.90;;;6.10;57.90;;;;;;5419095;26;20013;-81
2024/04/19 00:06:32;;;;;;;1999.90;999.90;;;6.00;58.20;;;;;;5416583;26;20494;-82
2024/04/19 00:08:57;;;;;;;1999.90;999.90;;;6.00;58.60;;;;;;5409851;26;20088;-81
2024/04/19 00:11:23;;;;;;;1999.90;999.90;;;5.90;59.10;;;;;;5427443;26;20003;-82
2024/04/19 00:13:49;;;;;;;1999.90;999.90;;;5.80;59.30;;;;;;5414163;26;20006;-77
2024/04/19 00:16:14;;;;;;;1999.90;999.90;;;5.70;59.80;;;;;;5417371;26;20010;-82
2024/04/19 00:18:40;;;;;;;1999.90;999.90;;;5.50;61.00;;;;;;5425660;26;20006;-77
2024/04/19 00:21:06;;;;;;;1999.90;999.90;;;5.40;61.40;;;;;;5428421;26;20036;-83
2024/04/19 00:23:31;;;;;;;1999.90;999.90;;;5.60;60.90;;;;;;5427091;26;19999;-85
2024/04/19 00:25:57;;;;;;;1999.90;999.90;;;5.70;60.80;;;;;;5419478;26;20007;-86
2024/04/19 00:28:23;;;;;;;1999.90;999.90;;;5.60;61.20;;;;;;5425436;26;20014;-83
2024/04/19 00:30:49;;;;;;;1999.90;999.90;;;5.70;61.10;;;;;;5418366;26;20438;-78
2024/04/19 00:33:14;;;;;;;1999.90;999.90;;;5.70;60.80;;;;;;5417714;26;20011;-82
2024/04/19 00:35:40;;;;;;;1999.90;999.90;;;5.70;61.00;;;;;;5419968;26;20004;-82
2024/04/19 00:38:06;;;;;;;1999.90;999.90;;;5.60;61.70;;;;;;5424156;26;19995;-81
2024/04/19 00:40:32;;;;;;;1999.90;999.90;;;5.50;61.90;;;;;;5429554;26;20056;-79
2024/04/19 00:42:58;;;;;;;1999.90;999.90;;;5.40;62.40;;;;;;5417039;26;20061;-82
2024/04/19 00:45:39;;;;;;;1999.90;999.90;;;5.60;62.10;;;;;;5427019;26;19998;-80
2024/04/19 00:48:19;;;;;;;1999.90;999.90;;;5.40;62.10;;;;;;5419779;26;19996;-80
2024/04/19 00:50:47;;;;;;;1999.90;999.90;;;5.40;63.10;;;;;;5422199;26;20017;-79
2024/04/19 00:53:21;;;;;;;1999.90;999.90;;;5.10;64.30;;;;;;5415261;26;20008;-80
2024/04/19 00:55:48;;;;;;;1999.90;999.90;;;4.90;65.30;;;;;;5411906;26;20072;-79
2024/04/19 00:58:14;;;;;;;1999.90;999.90;;;4.70;66.40;;;;;;5430462;26;20583;-79
2024/04/19 01:00:40;;;;;;;1999.90;999.90;;;4.70;67.30;;;;;;5432792;26;20006;-80
2024/04/19 01:03:06;;;;;;;1999.90;999.90;;;4.50;68.40;;;;;;5421171;26;19995;-85
2024/04/19 01:05:32;;;;;;;1999.90;999.90;;;4.40;69.30;;;;;;5417691;26;19995;-81
2024/04/19 01:07:58;;;;;;;1999.90;999.90;;;4.40;69.90;;;;;;5411142;26;20011;-81
2024/04/19 01:10:24;;;;;;;1999.90;999.90;;;4.30;70.10;;;;;;5422602;26;19994;-84
2024/04/19 01:12:49;;;;;;;1999.90;999.90;;;4.40;70.40;;;;;;5415271;26;20803;-79
2024/04/19 01:15:21;;;;;;;1999.90;999.90;;;4.30;71.30;;;;;;5418707;26;19990;-79
2024/04/19 01:17:46;;;;;;;1999.90;999.90;;;4.20;71.70;;;;;;5416708;26;19999;-82
2024/04/19 01:20:13;;;;;;;1999.90;999.90;;;4.20;72.10;;;;;;5413156;26;20052;-87
2024/04/19 01:22:40;;;;;;;1999.90;999.90;;;4.20;72.20;;;;;;5418160;26;20084;-82
2024/04/19 01:25:09;;;;;;;1999.90;999.90;;;4.20;72.80;;;;;;5415514;26;20252;-81
2024/04/19 01:27:35;;;;;;;1999.90;999.90;;;4.00;73.70;;;;;;5417863;26;20000;-81
2024/04/19 01:30:01;;;;;;;1999.90;999.90;;;4.00;74.30;;;;;;5412569;26;20018;-81
2024/04/19 01:32:26;;;;;;;1999.90;999.90;;;4.00;74.50;;;;;;5426492;26;20006;-83
2024/04/19 01:34:52;;;;;;;1999.90;999.90;;;4.00;74.50;;;;;;5415033;26;19995;-82
2024/04/19 01:37:18;;;;;;;1999.90;999.90;;;4.20;73.90;;;;;;5421241;26;20072;-82
2024/04/19 01:39:43;;;;;;;1999.90;999.90;;;4.30;73.40;;;;;;5409595;26;20333;-84
2024/04/19 01:42:10;;;;;;;1999.90;999.90;;;4.40;72.40;;;;;;5425972;26;19999;-82
2024/04/19 01:44:36;;;;;;;1999.90;999.90;;;4.40;73.00;;;;;;5410255;26;20014;-84
2024/04/19 01:47:01;;;;;;;1999.90;999.90;;;4.30;73.20;;;;;;5422597;26;20439;-81
2024/04/19 01:49:27;;;;;;;1999.90;999.90;;;4.30;73.20;;;;;;5421351;26;20429;-84
2024/04/19 01:51:53;;;;;;;1999.90;999.90;;;4.40;73.00;;;;;;5420860;26;20019;-88
2024/04/19 01:54:18;;;;;;;1999.90;999.90;;;4.40;72.60;;;;;;5425617;26;19999;-79
2024/04/19 01:56:44;;;;;;;1999.90;999.90;;;4.40;72.70;;;;;;5416857;26;20018;-80
2024/04/19 01:59:10;;;;;;;1999.90;999.90;;;4.40;72.60;;;;;;5436841;26;20058;-86
2024/04/19 02:01:36;;;;;;;1999.90;999.90;;;4.30;72.80;;;;;;5421419;26;20068;-85
2024/04/19 02:04:03;;;;;;;1999.90;999.90;;;4.40;72.80;;;;;;5415593;26;20549;-84
2024/04/19 02:06:29;;;;;;;1999.90;999.90;;;4.30;72.90;;;;;;5419809;26;20071;-91
2024/04/19 02:08:55;;;;;;;1999.90;999.90;;;4.30;73.60;;;;;;5415046;26;20007;-86
2024/04/19 02:11:21;;;;;;;1999.90;999.90;;;4.20;73.50;;;;;;5424584;26;20445;-86
2024/04/19 02:13:46;;;;;;;1999.90;999.90;;;4.30;73.30;;;;;;5411927;26;20047;-83
2024/04/19 02:16:12;;;;;;;1999.90;999.90;;;4.20;73.40;;;;;;5417893;26;20444;-86
2024/04/19 02:18:38;;;;;;;1999.90;999.90;;;4.10;73.70;;;;;;5421901;26;20013;-85
2024/04/19 02:21:04;;;;;;;1999.90;999.90;;;4.10;74.20;;;;;;5411704;26;20003;-86
2024/04/19 02:23:35;;;;;;;1999.90;999.90;;;4.00;74.50;;;;;;5412080;26;20013;-88
2024/04/19 02:26:04;;;;;;;1999.90;999.90;;;4.00;75.10;;;;;;5410483;26;19996;-83
2024/04/19 02:31:14;;;;;;;1999.90;999.90;;;3.80;75.80;;;;;;5419754;26;20035;-82
2024/04/19 02:33:41;;;;;;;1999.90;999.90;;;3.70;76.60;;;;;;5419456;26;20000;-82
2024/04/19 02:36:07;;;;;;;1999.90;999.90;;;3.70;76.60;;;;;;5420990;26;20822;-79
2024/04/19 02:38:36;;;;;;;1999.90;999.90;;;3.70;76.90;;;;;;5416186;26;19992;-81
2024/04/19 02:41:01;;;;;;;1999.90;999.90;;;3.60;77.50;;;;;;5421091;26;20013;-79
2024/04/19 02:43:27;;;;;;;1999.90;999.90;;;3.50;77.80;;;;;;5412796;26;19998;-81
2024/04/19 02:45:53;;;;;;;1999.90;999.90;;;3.40;78.40;;;;;;5435690;26;20009;-81
2024/04/19 02:48:19;;;;;;;1999.90;999.90;;;3.50;78.40;;;;;;5423681;26;20470;-81
2024/04/19 02:50:47;;;;;;;1999.90;999.90;;;3.50;78.20;;;;;;5414439;26;20006;-82
2024/04/19 02:53:13;;;;;;;1999.90;999.90;;;3.60;77.80;;;;;;5416957;26;20003;-81
2024/04/19 02:55:38;;;;;;;1999.90;999.90;;;3.50;78.20;;;;;;5422610;26;20006;-82
2024/04/19 02:58:04;;;;;;;1999.90;999.90;;;3.40;78.80;;;;;;5425118;26;20002;-83
2024/04/19 03:00:29;;;;;;;1999.90;999.90;;;3.40;78.50;;;;;;5419697;26;20003;-81
2024/04/19 03:02:55;;;;;;;1999.90;999.90;;;3.50;78.40;;;;;;5423882;26;20002;-81
2024/04/19 03:05:21;;;;;;;1999.90;999.90;;;3.40;78.80;;;;;;5412849;26;20007;-82
2024/04/19 03:07:46;;;;;;;1999.90;999.90;;;3.30;78.90;;;;;;5424797;26;20011;-79
2024/04/19 03:10:12;;;;;;;1999.90;999.90;;;3.50;78.50;;;;;;5418450;26;19999;-83
2024/04/19 03:12:38;;;;;;;1999.90;999.90;;;3.50;78.00;;;;;;5419345;26;20066;-80
2024/04/19 03:15:04;;;;;;;1999.90;999.90;;;3.60;77.70;;;;;;5422610;26;20002;-83
2024/04/19 03:17:30;;;;;;;1999.90;999.90;;;3.60;77.80;;;;;;5417163;26;20077;-82
2024/04/19 03:19:55;;;;;;;1999.90;999.90;;;3.50;78.00;;;;;;5425531;26;20043;-80
2024/04/19 03:22:21;;;;;;;1999.90;999.90;;;3.50;78.00;;;;;;5415046;26;21078;-79
2024/04/19 03:24:47;;;;;;;1999.90;999.90;;;3.50;78.30;;;;;;5427142;26;20322;-79
2024/04/19 03:27:12;;;;;;;1999.90;999.90;;;3.40;78.40;;;;;;5417342;26;19999;-83
2024/04/19 03:29:38;;;;;;;1999.90;999.90;;;3.40;78.60;;;;;;5413701;26;19999;-81
2024/04/19 03:32:04;;;;;;;1999.90;999.90;;;3.20;79.20;;;;;;5423077;26;20764;-83
2024/04/19 03:34:29;;;;;;;1999.90;999.90;;;3.10;79.90;;;;;;5417853;26;20011;-82
2024/04/19 03:36:55;;;;;;;1999.90;999.90;;;3.00;80.80;;;;;;5420866;26;20011;-81
2024/04/19 03:39:21;;;;;;;1999.90;999.90;;;2.80;81.10;;;;;;5427323;26;20010;-80
2024/04/19 03:41:47;;;;;;;1999.90;999.90;;;2.80;81.70;;;;;;5424545;26;20022;-81
2024/04/19 03:46:57;;;;;;;1999.90;999.90;;;2.70;82.20;;;;;;5429662;26;20009;-80
2024/04/19 03:49:23;;;;;;;1999.90;999.90;;;2.70;82.20;;;;;;5421563;26;19996;-82
2024/04/19 03:51:49;;;;;;;1999.90;999.90;;;2.70;82.30;;;;;;5422701;26;20227;-80
2024/04/19 03:54:14;;;;;;;1999.90;999.90;;;2.80;82.50;;;;;;5413045;26;20008;-80
2024/04/19 03:56:40;;;;;;;1999.90;999.90;;;2.70;82.40;;;;;;5426157;26;19999;-81
2024/04/19 03:59:06;;;;;;;1999.90;999.90;;;2.90;81.70;;;;;;5440129;26;19999;-81
2024/04/19 04:01:31;;;;;;;1999.90;999.90;;;2.80;82.30;;;;;;5425149;26;20092;-79
2024/04/19 04:03:57;;;;;;;1999.90;999.90;;;2.80;82.10;;;;;;5421519;26;19999;-79
2024/04/19 04:06:23;;;;;;;1999.90;999.90;;;2.70;82.60;;;;;;5425524;26;20032;-84
2024/04/19 04:08:49;;;;;;;1999.90;999.90;;;2.70;83.10;;;;;;5426533;26;20026;-81
2024/04/19 04:11:15;;;;;;;1999.90;999.90;;;2.60;83.50;;;;;;5417690;26;20015;-81
2024/04/19 04:13:41;;;;;;;1999.90;999.90;;;2.70;83.30;;;;;;5415223;26;20007;-81
2024/04/19 04:16:07;;;;;;;1999.90;999.90;;;2.80;82.80;;;;;;5412880;26;20014;-84
2024/04/19 04:18:36;;;;;;;1999.90;999.90;;;2.70;83.10;;;;;;5418417;26;20346;-80
2024/04/19 04:21:02;;;;;;;1999.90;999.90;;;2.60;83.40;;;;;;5425412;26;20229;-82
2024/04/19 04:23:30;;;;;;;1999.90;999.90;;;2.60;83.50;;;;;;5415741;26;20010;-78
2024/04/19 04:25:55;;;;;;;1999.90;999.90;;;2.40;84.30;;;;;;5425541;26;20031;-80
2024/04/19 04:28:21;;;;;;;1999.90;999.90;;;2.50;83.90;;;;;;5418087;26;20003;-82
2024/04/19 04:30:47;;;;;;;1999.90;999.90;;;2.60;83.50;;;;;;5426005;26;20010;-83
2024/04/19 04:33:12;;;;;;;1999.90;999.90;;;2.50;83.90;;;;;;5421712;26;20727;-82
2024/04/19 04:35:38;;;;;;;1999.90;999.90;;;2.40;84.40;;;;;;5416544;26;20010;-76
2024/04/19 04:38:07;;;;;;;1999.90;999.90;;;2.40;84.90;;;;;;5420004;26;20011;-78
2024/04/19 04:40:33;;;;;;;1999.90;999.90;;;2.40;85.30;;;;;;5427288;26;20007;-82
2024/04/19 04:42:59;;;;;;;1999.90;999.90;;;2.40;84.90;;;;;;5423273;26;20753;-80
2024/04/19 04:45:25;;;;;;;1999.90;999.90;;;2.40;85.10;;;;;;5425003;26;20000;-81
2024/04/19 04:47:51;;;;;;;1999.90;999.90;;;2.30;85.30;;;;;;5417824;26;20018;-82
2024/04/19 04:50:19;;;;;;;1999.90;999.90;;;2.40;85.20;;;;;;5425005;26;20039;-86
2024/04/19 04:52:45;;;;;;;1999.90;999.90;;;2.30;85.10;;;;;;5416746;26;20007;-82
2024/04/19 04:55:11;;;;;;;1999.90;999.90;;;2.30;85.50;;;;;;5428339;26;20571;-81
2024/04/19 04:57:37;;;;;;;1999.90;999.90;;;2.30;85.60;;;;;;5416527;26;20006;-86
2024/04/19 05:00:05;;;;;;;1999.90;999.90;;;2.20;85.70;;;;;;5424130;26;20047;-79
2024/04/19 05:02:30;;;;;;;1999.90;999.90;;;2.20;85.70;;;;;;5421526;26;20886;-79
2024/04/19 05:04:56;;;;;;;1999.90;999.90;;;2.20;86.00;;;;;;5434194;26;20013;-77
2024/04/19 05:07:24;;;;;;;1999.90;999.90;;;2.10;86.30;;;;;;5412044;26;20004;-80
2024/04/19 05:09:51;;;;;;;1999.90;999.90;;;2.10;86.90;;;;;;5416115;26;20396;-80
2024/04/19 05:12:17;;;;;;;1999.90;999.90;;;2.10;87.00;;;;;;5410280;26;20081;-84
2024/04/19 05:14:43;;;;;;;1999.90;999.90;;;2.10;87.10;;;;;;5420108;26;20010;-85
2024/04/19 05:17:08;;;;;;;1999.90;999.90;;;2.10;87.30;;;;;;5418488;26;20872;-86
2024/04/19 05:19:34;;;;;;;1999.90;999.90;;;2.40;86.70;;;;;;5417990;26;20076;-80
2024/04/19 05:22:00;;;;;;;1999.90;999.90;;;3.30;82.30;;;;;;5423357;26;19996;-85
2024/04/19 05:24:25;;;;;;;1999.90;999.90;;;3.70;80.30;;;;;;5419411;26;20563;-83
2024/04/19 05:26:51;;;;;;;1999.90;999.90;;;3.90;79.30;;;;;;5412948;26;20838;-80
2024/04/19 05:29:17;;;;;;;1999.90;999.90;;;4.00;79.30;;;;;;5422146;26;20017;-84
2024/04/19 05:31:43;;;;;;;1999.90;999.90;;;3.90;79.30;;;;;;5422723;26;20006;-82
2024/04/19 05:34:09;;;;;;;1999.90;999.90;;;4.20;78.10;;;;;;5417589;26;20591;-87
2024/04/19 05:36:34;;;;;;;1999.90;999.90;;;4.40;77.50;;;;;;5418440;26;20458;-81
2024/04/19 05:39:00;;;;;;;1999.90;999.90;;;4.60;76.50;;;;;;5406198;26;20011;-82
2024/04/19 05:41:25;;;;;;;1999.90;999.90;;;4.80;75.70;;;;;;5432962;26;19990;-81
2024/04/19 05:43:51;;;;;;;1999.90;999.90;;;4.60;76.20;;;;;;5411731;26;20003;-81
2024/04/19 05:46:17;;;;;;;1999.90;999.90;;;4.60;76.80;;;;;;5411179;26;19991;-80
2024/04/19 05:48:42;;;;;;;1999.90;999.90;;;4.50;76.50;;;;;;5419590;26;20007;-85
2024/04/19 05:51:08;;;;;;;1999.90;999.90;;;4.60;77.00;;;;;;5413525;26;20334;-79
2024/04/19 05:53:34;;;;;;;1999.90;999.90;;;4.80;76.80;;;;;;5425851;26;20031;-83
2024/04/19 05:55:59;;;;;;;1999.90;999.90;;;4.80;75.80;;;;;;5416723;26;19995;-79
2024/04/19 05:58:25;;;;;;;1999.90;999.90;;;4.90;76.80;;;;;;5414497;26;20006;-82
2024/04/19 06:00:51;;;;;;;1999.90;999.90;;;5.00;75.20;;;;;;5427640;26;20022;-78
2024/04/19 06:03:16;;;;;;;1999.90;999.90;;;5.20;75.60;;;;;;5426296;26;20008;-78
2024/04/19 06:05:44;;;;;;;1999.90;999.90;;;5.30;75.00;;;;;;5413550;26;20500;-77
2024/04/19 06:08:12;;;;;;;1999.90;999.90;;;5.80;73.50;;;;;;5413349;26;20014;-77
2024/04/19 06:10:38;;;;;;;1999.90;999.90;;;6.00;72.30;;;;;;5438815;26;19995;-79
2024/04/19 06:13:03;;;;;;;1999.90;999.90;;;5.90;71.70;;;;;;5416983;26;20791;-80
2024/04/19 06:15:29;;;;;;;1999.90;999.90;;;6.20;70.80;;;;;;5437052;26;20006;-80
2024/04/19 06:17:55;;;;;;;1999.90;999.90;;;6.50;70.20;;;;;;5429279;26;20003;-80
2024/04/19 06:20:20;;;;;;;1999.90;999.90;;;6.70;69.10;;;;;;5412947;26;19999;-79
2024/04/19 06:22:46;;;;;;;1999.90;999.90;;;6.70;69.00;;;;;;5416665;26;20525;-77
2024/04/19 06:25:12;;;;;;;1999.90;999.90;;;7.00;69.30;;;;;;5403021;26;20014;-77
2024/04/19 06:27:37;;;;;;;1999.90;999.90;;;7.70;67.10;;;;;;5433469;26;20105;-77
2024/04/19 06:30:03;;;;;;;1999.90;999.90;;;7.40;65.50;;;;;;5413927;26;20084;-77
2024/04/19 06:32:29;;;;;;;1999.90;999.90;;;8.00;65.00;;;;;;5435234;26;20326;-76
2024/04/19 06:34:55;;;;;;;1999.90;999.90;;;8.40;63.20;;;;;;5436713;26;20850;-78
2024/04/19 06:37:20;;;;;;;1999.90;999.90;;;9.00;60.90;;;;;;5425222;26;19996;-77
2024/04/19 06:39:46;;;;;;;1999.90;999.90;;;10.30;57.20;;;;;;5425791;26;20552;-78
2024/04/19 06:42:12;;;;;;;1999.90;999.90;;;11.40;54.80;;;;;;5406344;26;20061;-78
2024/04/19 06:44:38;;;;;;;1999.90;999.90;;;11.70;53.10;;;;;;5424056;26;20006;-78
2024/04/19 06:47:04;;;;;;;1999.90;999.90;;;11.00;53.00;;;;;;5415910;26;20807;-77
2024/04/19 06:49:30;;;;;;;1999.90;999.90;;;11.40;52.30;;;;;;5408262;26;21487;-78
2024/04/19 06:51:55;;;;;;;1999.90;999.90;;;12.10;52.70;;;;;;5426786;26;20002;-78
2024/04/19 06:54:21;;;;;;;1999.90;999.90;;;12.20;51.20;;;;;;5420817;26;20015;-78
2024/04/19 06:56:47;;;;;;;1999.90;999.90;;;12.50;49.80;;;;;;5446116;26;20334;-78
2024/04/19 06:59:13;;;;;;;1999.90;999.90;;;12.80;48.70;;;;;;5427086;26;20362;-79
2024/04/19 07:01:38;;;;;;;1999.90;999.90;;;13.70;47.90;;;;;;5422937;26;19998;-78
2024/04/19 07:04:04;;;;;;;1999.90;999.90;;;13.10;49.00;;;;;;5426753;26;20516;-78
2024/04/19 07:06:30;;;;;;;1999.90;999.90;;;13.50;49.10;;;;;;5432752;26;20256;-78
2024/04/19 07:08:55;;;;;;;1999.90;999.90;;;14.00;48.30;;;;;;5428135;26;19999;-77
2024/04/19 07:11:21;;;;;;;1999.90;999.90;;;14.30;47.20;;;;;;5422666;26;20901;-78
2024/04/19 07:13:47;;;;;;;1999.90;999.90;;;14.80;45.60;;;;;;5425122;26;19995;-78
2024/04/19 07:16:14;;;;;;;1999.90;999.90;;;14.80;44.90;;;;;;5423718;26;19995;-77
2024/04/19 07:18:39;;;;;;;;;;;14.90;43.90;;;;;;5423247;26;20326;-77
2024/04/19 07:21:05;;;;;;;;;;;15.60;43.30;;;;;;5405024;26;20011;-78
2024/04/19 07:23:31;;;;;;;1999.90;999.90;;;15.70;41.40;;;;;;5409142;26;19925;-77
2024/04/19 07:25:56;;;;;;;1999.90;999.90;;;15.90;42.70;;;;;;5413017;26;20007;-78
2024/04/19 07:28:22;;;;;;;1999.90;999.90;;;16.40;40.90;;;;;;5418296;26;20238;-78
2024/04/19 07:30:49;;;;;;;1999.90;999.90;;;16.30;41.10;;;;;;5413752;26;20086;-77
2024/04/19 07:33:14;;;;;;;1999.90;999.90;;;16.20;41.50;;;;;;5408309;26;19999;-78
2024/04/19 07:35:40;;;;;;;1999.90;999.90;;;17.00;39.90;;;;;;5415823;26;20013;-77
2024/04/19 07:38:06;;;;;;;1999.90;999.90;;;17.70;40.60;;;;;;5437638;26;20355;-78
2024/04/19 07:40:35;;;;;;;1999.90;999.90;;;18.10;38.00;;;;;;5433530;26;20263;-77
2024/04/19 07:43:00;;;;;;;1999.90;999.90;;;18.30;37.80;;;;;;5408526;26;20010;-78
2024/04/19 07:45:26;;;;;;;1999.90;999.90;;;18.60;37.40;;;;;;5428925;26;19999;-78
2024/04/19 07:47:53;;;;;;;1999.90;999.90;;;18.70;37.10;;;;;;5423591;26;20010;-77
2024/04/19 07:50:19;;;;;;;1999.90;999.90;;;19.00;37.40;;;;;;5417434;26;20334;-78
2024/04/19 07:52:49;;;;;;;1999.90;999.90;;;18.90;37.00;;;;;;5419197;26;20354;-77
2024/04/19 07:55:15;;;;;;;1999.90;999.90;;;19.10;35.10;;;;;;5424068;26;20007;-78
2024/04/19 07:57:41;;;;;;;1999.90;999.90;;;19.30;35.80;;;;;;5427835;26;20018;-78
2024/04/19 08:00:15;;;;;;;1999.90;999.90;;;19.70;35.00;;;;;;5428461;26;20003;-78
2024/04/19 08:02:41;;;;;;;1999.90;999.90;;;19.90;34.80;;;;;;5428813;26;20676;-78
2024/04/19 08:05:07;;;;;;;1999.90;999.90;;;20.50;35.20;;;;;;5430668;26;20003;-78
2024/04/19 08:07:34;;;;;;;1999.90;999.90;;;21.10;33.80;;;;;;5417923;26;20022;-78
2024/04/19 08:10:00;;;;;;;1999.90;999.90;;;21.90;34.90;;;;;;5405486;26;20064;-78
2024/04/19 08:12:25;;;;;;;1999.90;999.90;;;21.80;31.90;;;;;;5411674;26;20007;-78
2024/04/19 08:14:51;;;;;;;1999.90;999.90;;;21.60;32.50;;;;;;5408020;26;20000;-79
2024/04/19 08:17:16;;;;;;;;;;;21.10;32.90;;;;;;5417353;26;20507;-77
2024/04/19 08:19:42;;;;;;;;;;;21.50;32.90;;;;;;5436621;26;19964;-78
2024/04/19 08:22:08;;;;;;;;;;;22.50;32.30;;;;;;5434942;26;19932;-79
2024/04/19 08:24:33;;;;;;;;;;;22.40;30.80;;;;;;5411420;26;19925;-79
2024/04/19 08:26:59;;;;;;;;;;;22.50;29.90;;;;;;5410731;26;19937;-78
2024/04/19 08:29:24;;;;;;;;;;;22.20;30.70;;;;;;5414534;26;19925;-78
2024/04/19 08:31:50;;;;;;;;;;;22.50;29.90;;;;;;5425431;26;20861;-78
2024/04/19 08:34:15;;;;;;;;;;;22.90;29.80;;;;;;5409387;26;19932;-79
2024/04/19 08:36:41;;;;;;;;;;;22.20;29.50;;;;;;5426999;26;19924;-78
2024/04/19 08:39:06;;;;;;;;;;;22.40;29.80;;;;;;5433072;26;19925;-78
2024/04/19 08:41:32;;;;;;;1999.90;999.90;;;23.40;29.40;;;;;;5413860;26;20418;-78
2024/04/19 08:43:59;;;;;;;;;;;23.50;29.90;;;;;;5423786;26;19994;-79
2024/04/19 08:46:26;;;;;;;1999.90;999.90;;;22.80;28.40;;;;;;5427544;26;19925;-78
2024/04/19 08:48:54;;;;;;;1999.90;999.90;;;23.60;28.70;;;;;;5414066;26;20445;-79
2024/04/19 08:51:21;;;;;;;1999.90;999.90;;;23.60;28.60;;;;;;5418166;26;20006;-77
2024/04/19 08:53:50;;;;;;;1999.90;999.90;;;24.00;27.40;;;;;;5422652;26;20034;-78
2024/04/19 08:56:16;;;;;;;1999.90;999.90;;;24.20;27.30;;;;;;5422303;26;20006;-78
2024/04/19 08:58:42;;;;;;;1999.90;999.90;;;25.10;28.00;;;;;;5425143;26;19995;-78
2024/04/19 09:01:08;;;;;;;;;;;25.10;28.00;;;;;;5424944;26;19999;-79
2024/04/19 09:03:33;;;;;;;1999.90;999.90;;;25.40;27.20;;;;;;5415192;26;19994;-79
2024/04/19 09:05:59;;;;;;;;;;;24.90;24.40;;;;;;5407470;26;20076;-79
2024/04/19 09:08:25;;;;;;;1999.90;999.90;;;25.20;24.50;;;;;;5405340;26;19932;-79
2024/04/19 09:10:51;;;;;;;1999.90;999.90;;;25.40;25.30;;;;;;5421642;26;19990;-78
2024/04/19 09:13:18;;;;;;;1999.90;999.90;;;25.60;26.10;;;;;;5407883;26;20003;-78
2024/04/19 09:15:47;;;;;;;1999.90;999.90;;;26.60;26.50;;;;;;5410910;26;20007;-79
2024/04/19 09:18:13;;;;;;;1999.90;999.90;;;26.30;24.90;;;;;;5411241;26;20003;-79
2024/04/19 09:20:44;;;;;;;1999.90;999.90;;;26.10;25.40;;;;;;5410291;26;20011;-79
2024/04/19 09:23:11;;;;;;;1999.90;999.90;;;27.10;25.80;;;;;;5426964;26;20051;-79
2024/04/19 09:25:38;;;;;;;;;;;27.40;24.80;;;;;;5412265;26;20015;-78
2024/04/19 09:28:05;;;;;;;1999.90;999.90;;;26.30;23.90;;;;;;5408787;26;19933;-80
2024/04/19 09:30:31;;;;;;;1999.90;999.90;;;26.00;23.60;;;;;;5412183;26;20071;-78
2024/04/19 09:32:57;;;;;;;1999.90;999.90;;;26.10;25.10;;;;;;5408392;26;19999;-78
2024/04/19 09:35:30;;;;;;;1999.90;999.90;;;25.70;24.30;;;;;;5429340;26;20022;-78
2024/04/19 09:37:56;;;;;;;1999.90;999.90;;;26.10;25.80;;;;;;5431523;26;20010;-79
2024/04/19 09:40:25;;;;;;;;;;;27.00;25.30;;;;;;5438542;26;20002;-77
2024/04/19 09:42:51;;;;;;;1999.90;999.90;;;27.40;24.10;;;;;;5421908;26;19924;-79
2024/04/19 09:45:20;;;;;;;1999.90;999.90;;;27.70;24.90;;;;;;5424744;26;20035;-78
2024/04/19 09:47:52;;;;;;;1999.90;999.90;;;28.00;25.20;;;;;;5413935;26;20076;-77
2024/04/19 09:50:21;;;;;;;1999.90;999.90;;;27.90;24.10;;;;;;5433436;26;20337;-79
2024/04/19 09:52:54;;;;;;;1999.90;999.90;;;26.90;24.10;;;;;;5417684;26;20462;-78
2024/04/19 09:55:28;;;;;;;1999.90;999.90;;;26.20;24.00;;;;;;5403488;26;20004;-77
2024/04/19 09:57:55;;;;;;;1999.90;999.90;;;26.10;25.10;;;;;;5422453;26;20026;-79
2024/04/19 10:00:28;;;;;;;1999.90;999.90;;;26.90;24.40;;;;;;5429829;26;20002;-77
2024/04/19 10:02:55;;;;;;;1999.90;999.90;;;27.10;25.00;;;;;;5414949;26;20015;-78
2024/04/19 10:05:21;;;;;;;1999.90;999.90;;;26.80;24.30;;;;;;5418269;26;20010;-79
2024/04/19 10:07:49;;;;;;;1999.90;999.90;;;26.90;24.20;;;;;;5424905;26;20030;-78
2024/04/19 10:10:15;;;;;;;1999.90;999.90;;;26.50;25.20;;;;;;5416459;26;20004;-78
2024/04/19 10:12:41;;;;;;;1999.90;999.90;;;27.20;25.20;;;;;;5417941;26;20344;-78
2024/04/19 10:15:13;;;;;;;1999.90;999.90;;;26.70;24.50;;;;;;5403463;26;19999;-79
2024/04/19 10:17:39;;;;;;;1999.90;999.90;;;26.30;26.40;;;;;;5414144;26;19999;-78
2024/04/19 10:20:05;;;;;;;1999.90;999.90;;;24.70;27.70;;;;;;5408183;26;20000;-78
2024/04/19 10:22:32;;;;;;;1999.90;999.90;;;23.90;29.50;;;;;;5411649;26;19999;-78
2024/04/19 10:25:01;;;;;;;1999.90;999.90;;;22.90;31.70;;;;;;5416449;26;20010;-79
2024/04/19 10:27:28;;;;;;;1999.90;999.90;;;22.00;31.60;;;;;;5425674;26;19999;-79
2024/04/19 10:29:54;;;;;;;1999.90;999.90;;;21.90;33.50;;;;;;5422304;26;20007;-79
2024/04/19 10:32:20;;;;;;;1999.90;999.90;;;21.40;34.60;;;;;;5418535;26;20005;-77
2024/04/19 10:34:45;;;;;;;1999.90;999.90;;;20.30;35.10;;;;;;5406345;26;20030;-79
2024/04/19 10:37:12;;;;;;;1999.90;999.90;;;20.00;37.40;;;;;;5428265;26;19998;-79
2024/04/19 10:39:37;;;;;;;;;;;19.40;38.00;;;;;;5422312;26;19999;-79
2024/04/19 10:42:03;;;;;;;;;;;19.20;39.90;;;;;;5414909;26;20508;-79
2024/04/19 10:44:31;;;;;;;1999.90;999.90;;;19.50;36.20;;;;;;5430230;26;19933;-79
2024/04/19 10:46:57;;;;;;;1999.90;999.90;;;19.20;39.50;;;;;;5433346;26;19999;-78
2024/04/19 10:49:24;;;;;;;1999.90;999.90;;;18.70;39.20;;;;;;5417609;26;20441;-78
2024/04/19 10:51:53;;;;;;;1999.90;999.90;;;19.30;39.90;;;;;;5424755;26;20005;-77
2024/04/19 10:54:18;;;;;;;1999.90;999.90;;;19.20;39.10;;;;;;5421729;26;20011;-79
2024/04/19 10:56:44;;;;;;;1999.90;999.90;;;19.40;38.60;;;;;;5437296;26;19995;-78
2024/04/19 10:59:10;;;;;;;1999.90;999.90;;;19.00;39.40;;;;;;5434449;26;20595;-79
2024/04/19 11:01:41;;;;;;;1999.90;999.90;;;18.50;41.10;;;;;;5420118;26;20489;-78
2024/04/19 11:04:06;;;;;;;1999.90;999.90;;;19.10;40.70;;;;;;5415050;26;20068;-79
2024/04/19 11:06:33;;;;;;;1999.90;999.90;;;19.20;41.40;;;;;;5407659;26;19999;-78
2024/04/19 11:08:59;;;;;;;1999.90;999.90;;;18.70;42.20;;;;;;5426045;26;20199;-76
2024/04/19 11:11:26;;;;;;;1999.90;999.90;;;18.40;41.70;;;;;;5421475;26;20469;-77
2024/04/19 11:13:51;;;;;;;1999.90;999.90;;;17.80;41.00;;;;;;5416774;26;20335;-77
2024/04/19 11:16:18;;;;;;;1999.90;999.90;;;18.20;41.70;;;;;;5425709;26;20006;-78
2024/04/19 11:18:43;;;;;;;;;;;17.20;36.90;;;;;;5412278;26;20000;-79
2024/04/19 11:21:10;;;;;;;1999.90;999.90;;;17.70;40.00;;;;;;5405896;26;19932;-79
2024/04/19 11:23:35;;;;;;;;;;;18.10;41.70;;;;;;5408923;26;19992;-79
2024/04/19 11:26:01;;;;;;;1999.90;999.90;;;18.40;41.70;;;;;;5408370;26;20597;-78
2024/04/19 11:28:27;;;;;;;1999.90;999.90;;;18.40;41.70;;;;;;5420365;26;19999;-78
2024/04/19 11:30:54;;;;;;;1999.90;999.90;;;18.30;43.10;;;;;;5418767;26;20278;-80
2024/04/19 11:33:21;;;;;;;1999.90;999.90;;;18.30;42.80;;;;;;5436301;26;20084;-79
2024/04/19 11:35:46;;;;;;;1999.90;999.90;;;18.30;43.20;;;;;;5414465;26;20003;-77
2024/04/19 11:38:16;;;;;;;1999.90;999.90;;;17.80;42.50;;;;;;5441852;26;20013;-77
2024/04/19 11:40:44;;;;;;;1999.90;999.90;;;17.70;44.50;;;;;;5431130;26;19994;-78
2024/04/19 11:43:11;;;;;;;1999.90;999.90;;;17.60;44.80;;;;;;5417660;26;20104;-77
2024/04/19 11:45:45;;;;;;;;;;;17.50;45.10;;;;;;5425491;26;20087;-77
2024/04/19 11:48:25;;;;;;;1999.90;999.90;;;17.30;45.20;;;;;;5425527;26;19982;-76
2024/04/19 11:50:54;;;;;;;1999.90;999.90;;;16.80;42.50;;;;;;5422318;26;20031;-78
2024/04/19 11:53:20;;;;;;;1999.90;999.90;;;16.80;43.10;;;;;;5432354;26;20011;-76
2024/04/19 11:55:50;;;;;;;1999.90;999.90;;;16.60;41.20;;;;;;5422484;26;20015;-78
2024/04/19 11:58:19;;;;;;;1999.90;999.90;;;16.90;43.30;;;;;;5429417;26;20003;-77
2024/04/19 12:00:48;;;;;;;1999.90;999.90;;;16.60;42.10;;;;;;5428050;26;20005;-78
2024/04/19 12:03:14;;;;;;;1999.90;999.90;;;15.90;36.80;;;;;;5414726;26;19999;-78
2024/04/19 12:05:41;;;;;;;1999.90;999.90;;;16.00;41.70;;;;;;5419991;26;20007;-77
2024/04/19 12:08:07;;;;;;;1999.90;999.90;;;15.90;37.00;;;;;;5423344;26;20447;-78
2024/04/19 12:10:32;;;;;;;1999.90;999.90;;;16.30;37.10;;;;;;5404680;26;20826;-78
2024/04/19 12:12:58;;;;;;;1999.90;999.90;;;16.20;47.90;;;;;;5416032;26;20010;-78
2024/04/19 12:15:24;;;;;;;1999.90;999.90;;;16.40;44.80;;;;;;5419991;26;20014;-78